createdAt,value
2022-10-11T00:01:33.991Z,12.00
2022-10-11T00:04:00.529Z,12.00
2022-10-11T00:06:26.979Z,12.00
2022-10-11T00:08:53.439Z,11.90
2022-10-11T00:11:19.811Z,11.90
2022-10-11T00:13:46.283Z,11.90
2022-10-11T00:16:14.222Z,11.90
2022-10-11T00:18:41.058Z,11.90
2022-10-11T00:21:08.732Z,11.90
2022-10-11T00:23:35.478Z,11.90
2022-10-11T00:26:03.284Z,11.90
2022-10-11T00:28:30.513Z,11.90
2022-10-11T00:30:57.007Z,11.90
2022-10-11T00:33:23.536Z,11.90
2022-10-11T00:35:49.985Z,11.90
2022-10-11T00:38:16.580Z,11.90
2022-10-11T00:40:43.471Z,11.90
2022-10-11T00:43:20.711Z,11.90
2022-10-11T00:45:47.565Z,11.90
2022-10-11T00:48:21.528Z,11.90
2022-10-11T00:50:48.087Z,11.90
2022-10-11T00:53:14.513Z,11.80
2022-10-11T00:55:47.116Z,11.80
2022-10-11T00:58:13.822Z,11.90
2022-10-11T01:00:40.317Z,11.80
2022-10-11T01:03:06.919Z,11.80
2022-10-11T01:05:33.296Z,11.80
2022-10-11T01:08:00.301Z,11.80
2022-10-11T01:10:27.476Z,11.80
2022-10-11T01:13:07.091Z,11.80
2022-10-11T01:15:42.279Z,11.80
2022-10-11T01:18:08.661Z,11.80
2022-10-11T01:20:35.272Z,11.80
2022-10-11T01:23:01.691Z,11.80
2022-10-11T01:25:46.177Z,11.80
2022-10-11T01:28:24.812Z,11.80
2022-10-11T01:30:51.599Z,11.80
2022-10-11T01:33:35.591Z,11.80
2022-10-11T01:36:10.884Z,11.80
2022-10-11T01:38:56.033Z,11.80
2022-10-11T01:41:27.488Z,11.80
2022-10-11T01:43:56.300Z,11.80
2022-10-11T01:46:23.827Z,11.80
2022-10-11T01:48:55.283Z,11.70
2022-10-11T01:51:23.528Z,11.70
2022-10-11T01:53:55.899Z,11.70
2022-10-11T01:56:28.400Z,11.70
2022-10-11T01:59:13.633Z,11.70
2022-10-11T02:01:40.062Z,11.70
2022-10-11T02:04:28.765Z,11.70
2022-10-11T02:07:06.039Z,11.70
2022-10-11T02:09:39.468Z,11.70
2022-10-11T02:12:07.651Z,11.70
2022-10-11T02:14:42.800Z,11.70
2022-10-11T02:17:14.026Z,11.70
2022-10-11T02:19:45.623Z,11.70
2022-10-11T02:22:17.581Z,11.70
2022-10-11T02:24:46.383Z,11.60
2022-10-11T02:27:13.651Z,11.70
2022-10-11T02:29:41.666Z,11.70
2022-10-11T02:32:09.319Z,11.60
2022-10-11T02:34:37.371Z,11.60
2022-10-11T02:37:10.198Z,11.60
2022-10-11T02:39:48.558Z,11.60
2022-10-11T02:42:18.323Z,11.60
2022-10-11T02:44:46.822Z,11.60
2022-10-11T02:47:14.099Z,11.60
2022-10-11T02:49:40.545Z,11.60
2022-10-11T02:52:07.067Z,11.60
2022-10-11T02:54:33.564Z,11.50
2022-10-11T02:56:59.974Z,11.50
2022-10-11T02:59:26.416Z,11.50
2022-10-11T03:01:52.910Z,11.50
2022-10-11T03:04:19.430Z,11.50
2022-10-11T03:06:45.835Z,11.50
2022-10-11T03:09:12.245Z,11.50
2022-10-11T03:11:38.684Z,11.50
2022-10-11T03:14:05.108Z,11.50
2022-10-11T03:16:31.548Z,11.40
2022-10-11T03:18:57.931Z,11.40
2022-10-11T03:21:25.233Z,11.40
2022-10-11T03:23:51.728Z,11.40
2022-10-11T03:26:18.181Z,11.40
2022-10-11T03:28:44.705Z,11.40
2022-10-11T03:31:11.489Z,11.30
2022-10-11T03:33:37.898Z,11.30
2022-10-11T03:36:04.794Z,11.30
2022-10-11T03:38:31.445Z,11.30
2022-10-11T03:40:57.872Z,11.30
2022-10-11T03:43:24.309Z,11.30
2022-10-11T03:45:50.670Z,11.30
2022-10-11T03:48:17.070Z,11.30
2022-10-11T03:50:43.548Z,11.20
2022-10-11T03:53:09.989Z,11.20
2022-10-11T03:55:38.229Z,11.20
2022-10-11T03:58:04.675Z,11.20
2022-10-11T04:00:32.178Z,11.20
2022-10-11T04:02:59.257Z,11.10
2022-10-11T04:05:25.644Z,11.20
2022-10-11T04:07:52.204Z,11.10
2022-10-11T04:10:18.699Z,11.10
2022-10-11T04:12:45.128Z,11.10
2022-10-11T04:15:13.390Z,11.10
2022-10-11T04:17:40.210Z,11.10
2022-10-11T04:20:07.220Z,11.10
2022-10-11T04:22:33.827Z,11.10
2022-10-11T04:25:00.438Z,11.10
2022-10-11T04:27:27.640Z,11.00
2022-10-11T04:29:54.073Z,11.00
2022-10-11T04:32:20.560Z,11.00
2022-10-11T04:34:47.070Z,11.00
2022-10-11T04:37:13.778Z,11.00
2022-10-11T04:39:40.251Z,10.90
2022-10-11T04:42:06.644Z,10.90
2022-10-11T04:44:33.081Z,10.90
2022-10-11T04:46:59.504Z,10.90
2022-10-11T04:49:25.972Z,10.90
2022-10-11T04:51:52.393Z,10.80
2022-10-11T04:54:18.850Z,10.80
2022-10-11T04:56:45.328Z,10.80
2022-10-11T04:59:11.820Z,10.80
2022-10-11T05:01:38.409Z,10.80
2022-10-11T05:04:04.945Z,10.80
2022-10-11T05:06:31.628Z,10.80
2022-10-11T05:08:58.067Z,10.80
2022-10-11T05:11:24.599Z,10.80
2022-10-11T05:13:53.711Z,10.80
2022-10-11T05:16:20.123Z,10.80
2022-10-11T05:18:46.572Z,10.80
2022-10-11T05:21:23.759Z,10.80
2022-10-11T05:23:50.651Z,10.80
2022-10-11T05:26:17.861Z,10.80
2022-10-11T05:28:44.563Z,10.70
2022-10-11T05:31:11.318Z,10.70
2022-10-11T05:33:37.964Z,10.70
2022-10-11T05:36:04.966Z,10.70
2022-10-11T05:38:31.745Z,10.70
2022-10-11T05:41:01.620Z,10.70
2022-10-11T05:43:28.282Z,10.70
2022-10-11T05:45:55.032Z,10.70
2022-10-11T05:48:21.727Z,10.70
2022-10-11T05:50:48.187Z,10.60
2022-10-11T05:53:14.593Z,10.60
2022-10-11T05:55:41.868Z,10.60
2022-10-11T05:58:10.227Z,10.60
2022-10-11T06:00:38.013Z,10.60
2022-10-11T06:03:08.387Z,10.60
2022-10-11T06:05:35.199Z,10.60
2022-10-11T06:08:02.290Z,10.60
2022-10-11T06:10:28.799Z,10.60
2022-10-11T06:12:55.433Z,10.60
2022-10-11T06:15:21.885Z,10.60
2022-10-11T06:17:48.398Z,10.60
2022-10-11T06:20:15.011Z,10.60
2022-10-11T06:22:41.501Z,10.60
2022-10-11T06:25:08.300Z,10.50
2022-10-11T06:27:34.715Z,10.50
2022-10-11T06:30:01.164Z,10.50
2022-10-11T06:32:27.640Z,10.50
2022-10-11T06:34:54.141Z,10.50
2022-10-11T06:37:20.616Z,10.50
2022-10-11T06:39:47.008Z,10.50
2022-10-11T06:42:13.505Z,10.50
2022-10-11T06:44:39.906Z,10.50
2022-10-11T06:47:06.730Z,10.50
2022-10-11T06:49:33.562Z,10.50
2022-10-11T06:52:00.014Z,10.50
2022-10-11T06:54:26.490Z,10.50
2022-10-11T06:56:52.990Z,10.50
2022-10-11T06:59:19.860Z,10.50
2022-10-11T07:01:46.414Z,10.50
2022-10-11T07:04:12.879Z,10.50
2022-10-11T07:06:40.509Z,10.50
2022-10-11T07:09:07.458Z,10.50
2022-10-11T07:11:33.927Z,10.50
2022-10-11T07:14:01.879Z,10.40
2022-10-11T07:16:28.851Z,10.50
2022-10-11T07:19:00.111Z,10.50
2022-10-11T07:21:27.615Z,10.50
2022-10-11T07:23:54.132Z,10.50
2022-10-11T07:26:20.705Z,10.50
2022-10-11T07:28:47.471Z,10.50
2022-10-11T07:31:15.654Z,10.60
2022-10-11T07:33:42.143Z,10.70
2022-10-11T07:36:09.300Z,10.70
2022-10-11T07:38:38.338Z,10.70
2022-10-11T07:41:05.952Z,10.70
2022-10-11T07:43:32.433Z,10.80
2022-10-11T07:46:04.404Z,10.80
2022-10-11T07:48:31.922Z,10.90
2022-10-11T07:51:02.251Z,11.00
2022-10-11T07:53:28.737Z,11.10
2022-10-11T07:55:55.197Z,11.20
2022-10-11T07:58:21.611Z,11.30
2022-10-11T08:00:52.680Z,11.20
2022-10-11T08:03:19.228Z,11.30
2022-10-11T08:05:45.809Z,11.30
2022-10-11T08:08:12.256Z,11.30
2022-10-11T08:10:39.235Z,11.30
2022-10-11T08:13:05.738Z,11.40
2022-10-11T08:15:32.388Z,11.50
2022-10-11T08:17:58.846Z,11.60
2022-10-11T08:20:25.330Z,11.70
2022-10-11T08:22:51.836Z,11.70
2022-10-11T08:25:18.320Z,11.80
2022-10-11T08:27:44.779Z,11.90
2022-10-11T08:30:11.565Z,12.00
2022-10-11T08:32:38.171Z,12.00
2022-10-11T08:35:04.866Z,12.10
2022-10-11T08:37:31.513Z,12.20
2022-10-11T08:39:57.948Z,12.20
2022-10-11T08:42:30.622Z,12.40
2022-10-11T08:45:12.273Z,12.60
2022-10-11T08:47:45.744Z,12.50
2022-10-11T08:50:23.176Z,12.50
2022-10-11T08:52:55.618Z,12.60
2022-10-11T08:55:39.305Z,12.60
2022-10-11T08:58:06.147Z,12.90
2022-10-11T09:00:33.973Z,12.90
2022-10-11T09:03:19.183Z,12.80
2022-10-11T09:06:04.746Z,12.90
2022-10-11T09:08:43.335Z,13.00
2022-10-11T09:11:09.779Z,13.20
2022-10-11T09:13:56.459Z,13.30
2022-10-11T09:16:30.485Z,13.40
2022-10-11T09:19:15.301Z,13.50
2022-10-11T09:21:52.061Z,13.80
2022-10-11T09:24:18.481Z,13.90
2022-10-11T09:26:44.873Z,14.00
2022-10-11T09:29:11.555Z,14.20
2022-10-11T09:31:38.062Z,14.30
2022-10-11T09:34:12.132Z,14.30
2022-10-11T09:36:57.493Z,14.30
2022-10-11T09:39:31.585Z,14.40
2022-10-11T09:42:01.473Z,14.40
2022-10-11T09:44:29.617Z,14.70
2022-10-11T09:46:56.421Z,14.80
2022-10-11T09:49:25.406Z,14.90
2022-10-11T09:51:53.401Z,15.30
2022-10-11T09:54:22.315Z,15.60
2022-10-11T09:56:48.774Z,15.40
2022-10-11T09:59:18.335Z,15.20
2022-10-11T10:01:44.888Z,15.40
2022-10-11T10:04:12.921Z,15.50
2022-10-11T10:06:40.166Z,15.50
2022-10-11T10:09:26.719Z,15.50
2022-10-11T10:11:54.706Z,15.70
2022-10-11T10:14:27.030Z,16.10
2022-10-11T10:17:01.604Z,15.90
2022-10-11T10:19:28.437Z,16.50
2022-10-11T10:21:55.957Z,16.70
2022-10-11T10:24:28.193Z,16.60
2022-10-11T10:27:06.734Z,16.90
2022-10-11T10:29:33.213Z,16.90
2022-10-11T10:32:13.976Z,16.80
2022-10-11T10:35:01.304Z,16.90
2022-10-11T10:37:36.455Z,17.00
2022-10-11T10:40:05.758Z,16.70
2022-10-11T10:42:32.705Z,17.20
2022-10-11T10:45:00.158Z,17.30
2022-10-11T10:47:26.592Z,17.70
2022-10-11T10:50:01.793Z,17.90
2022-10-11T10:52:28.228Z,17.70
2022-10-11T10:55:08.240Z,17.60
2022-10-11T10:57:55.556Z,17.90
2022-10-11T11:00:23.511Z,18.20
2022-10-11T11:02:58.779Z,18.20
2022-10-11T11:05:43.834Z,18.20
2022-10-11T11:08:33.329Z,18.50
2022-10-11T11:11:09.346Z,18.70
2022-10-11T11:13:38.804Z,18.40
2022-10-11T11:16:18.896Z,18.20
2022-10-11T11:18:45.267Z,18.70
2022-10-11T11:21:30.066Z,18.60
2022-10-11T11:24:03.534Z,18.60
2022-10-11T11:26:48.912Z,18.80
2022-10-11T11:29:34.015Z,18.50
2022-10-11T11:32:05.367Z,18.70
2022-10-11T11:34:52.119Z,18.80
2022-10-11T11:37:23.725Z,18.90
2022-10-11T11:39:51.848Z,18.90
2022-10-11T11:42:21.821Z,18.90
2022-10-11T11:44:49.392Z,19.00
2022-10-11T11:47:28.268Z,19.20
2022-10-11T11:50:15.233Z,19.00
2022-10-11T11:52:45.710Z,19.30
2022-10-11T11:55:12.306Z,19.10
2022-10-11T11:57:57.560Z,19.20
2022-10-11T12:00:27.149Z,19.10
2022-10-11T12:02:57.238Z,19.20
2022-10-11T12:05:27.888Z,19.10
2022-10-11T12:07:56.632Z,19.10
2022-10-11T12:10:46.280Z,19.30
2022-10-11T12:13:12.680Z,19.60
2022-10-11T12:15:39.176Z,19.60
2022-10-11T12:18:13.275Z,19.60
2022-10-11T12:20:41.713Z,19.70
2022-10-11T12:23:26.874Z,19.70
2022-10-11T12:26:12.175Z,19.80
2022-10-11T12:28:42.165Z,19.90
2022-10-11T12:31:19.572Z,20.10
2022-10-11T12:33:45.938Z,20.10
2022-10-11T12:36:31.125Z,20.20
2022-10-11T12:39:16.478Z,20.20
2022-10-11T12:41:53.735Z,20.30
2022-10-11T12:44:26.990Z,20.50
2022-10-11T12:46:53.738Z,20.50
2022-10-11T12:49:38.310Z,20.70
2022-10-11T12:52:17.212Z,20.60
2022-10-11T12:55:09.672Z,20.70
2022-10-11T12:57:48.164Z,20.80
2022-10-11T13:00:26.021Z,20.80
2022-10-11T13:02:52.557Z,20.90
2022-10-11T13:05:26.564Z,20.90
2022-10-11T13:07:54.791Z,20.90
2022-10-11T13:10:43.960Z,21.00
2022-10-11T13:13:18.597Z,21.00
2022-10-11T13:15:45.440Z,21.00
2022-10-11T13:18:13.627Z,21.00
2022-10-11T13:20:42.437Z,21.10
2022-10-11T13:23:28.331Z,21.10
2022-10-11T13:25:55.466Z,21.10
2022-10-11T13:28:22.681Z,21.10
2022-10-11T13:30:58.442Z,21.10
2022-10-11T13:33:26.873Z,21.10
2022-10-11T13:35:53.482Z,21.10
2022-10-11T13:38:22.122Z,21.10
2022-10-11T13:40:51.132Z,21.10
2022-10-11T13:43:20.611Z,21.10
2022-10-11T13:45:47.198Z,21.10
2022-10-11T13:48:14.891Z,21.10
2022-10-11T13:50:46.130Z,21.10
2022-10-11T13:53:12.498Z,21.10
2022-10-11T13:55:41.646Z,21.10
2022-10-11T13:58:23.198Z,21.10
2022-10-11T14:00:54.458Z,21.10
2022-10-11T14:03:21.332Z,21.10
2022-10-11T14:05:55.548Z,21.10
2022-10-11T14:08:25.242Z,21.10
2022-10-11T14:10:56.717Z,21.10
2022-10-11T14:13:35.530Z,21.10
2022-10-11T14:16:08.464Z,21.10
2022-10-11T14:18:51.890Z,21.10
2022-10-11T14:21:27.162Z,21.00
2022-10-11T14:23:54.809Z,21.00
2022-10-11T14:26:22.606Z,21.10
2022-10-11T14:28:51.216Z,21.00
2022-10-11T14:31:17.723Z,21.00
2022-10-11T14:33:44.196Z,21.00
2022-10-11T14:36:10.627Z,21.00
2022-10-11T14:38:37.073Z,21.00
2022-10-11T14:41:03.817Z,20.90
2022-10-11T14:43:30.260Z,21.00
2022-10-11T14:45:56.663Z,21.00
2022-10-11T14:48:43.213Z,21.00
2022-10-11T14:51:11.992Z,21.00
2022-10-11T14:53:42.061Z,21.00
2022-10-11T14:56:08.828Z,21.00
2022-10-11T14:58:35.384Z,21.00
2022-10-11T15:01:01.837Z,21.00
2022-10-11T15:03:28.244Z,20.90
2022-10-11T15:05:54.787Z,20.90
2022-10-11T15:08:21.205Z,20.90
2022-10-11T15:10:49.393Z,20.90
2022-10-11T15:13:15.823Z,20.90
2022-10-11T15:15:42.813Z,20.90
2022-10-11T15:18:12.397Z,20.90
2022-10-11T15:20:40.779Z,20.80
2022-10-11T15:23:09.498Z,20.80
2022-10-11T15:25:37.642Z,20.80
2022-10-11T15:28:04.288Z,20.80
2022-10-11T15:30:34.855Z,20.80
2022-10-11T15:33:04.046Z,20.80
2022-10-11T15:35:30.732Z,20.70
2022-10-11T15:37:58.483Z,20.70
2022-10-11T15:40:26.320Z,20.70
2022-10-11T15:42:53.592Z,20.70
2022-10-11T15:45:20.443Z,20.70
2022-10-11T15:47:47.337Z,20.70
2022-10-11T15:50:15.784Z,20.60
2022-10-11T15:52:42.272Z,20.60
2022-10-11T15:55:08.740Z,20.60
2022-10-11T15:57:35.176Z,20.60
2022-10-11T16:00:01.649Z,20.60
2022-10-11T16:02:28.503Z,20.50
2022-10-11T16:04:54.945Z,20.50
2022-10-11T16:07:21.371Z,20.50
2022-10-11T16:09:47.784Z,20.50
2022-10-11T16:12:14.180Z,20.50
2022-10-11T16:14:44.865Z,20.50
2022-10-11T16:17:13.426Z,20.40
2022-10-11T16:19:39.887Z,20.40
2022-10-11T16:22:06.270Z,20.30
2022-10-11T16:24:32.776Z,20.20
2022-10-11T16:26:59.231Z,20.20
2022-10-11T16:29:25.736Z,20.20
2022-10-11T16:31:52.304Z,20.20
2022-10-11T16:34:18.740Z,20.10
2022-10-11T16:36:45.869Z,20.10
2022-10-11T16:39:13.638Z,20.10
2022-10-11T16:41:40.432Z,20.00
2022-10-11T16:44:07.359Z,20.00
2022-10-11T16:46:34.081Z,19.90
2022-10-11T16:49:00.687Z,19.90
2022-10-11T16:51:27.145Z,19.90
2022-10-11T16:53:53.729Z,19.80
2022-10-11T16:56:22.611Z,19.80
2022-10-11T16:58:49.377Z,19.70
2022-10-11T17:01:15.963Z,19.70
2022-10-11T17:03:42.459Z,19.60
2022-10-11T17:06:09.349Z,19.60
2022-10-11T17:08:36.136Z,19.50
2022-10-11T17:11:03.049Z,19.50
2022-10-11T17:13:29.853Z,19.50
2022-10-11T17:15:56.690Z,19.40
2022-10-11T17:18:23.080Z,19.40
2022-10-11T17:20:49.810Z,19.30
2022-10-11T17:23:16.286Z,19.30
2022-10-11T17:25:43.896Z,19.20
2022-10-11T17:28:10.500Z,19.20
2022-10-11T17:30:37.392Z,19.10
2022-10-11T17:33:04.013Z,19.10
2022-10-11T17:35:31.223Z,19.10
2022-10-11T17:37:59.389Z,19.00
2022-10-11T17:40:28.807Z,18.90
2022-10-11T17:42:55.300Z,18.90
2022-10-11T17:45:21.751Z,18.80
2022-10-11T17:47:48.256Z,18.80
2022-10-11T17:50:14.692Z,18.80
2022-10-11T17:52:41.541Z,18.70
2022-10-11T17:55:08.112Z,18.70
2022-10-11T17:57:34.538Z,18.60
2022-10-11T18:00:03.809Z,18.60
2022-10-11T18:02:30.234Z,18.50
2022-10-11T18:04:56.766Z,18.50
2022-10-11T18:07:24.164Z,18.40
2022-10-11T18:09:50.695Z,18.40
2022-10-11T18:12:17.260Z,18.40
2022-10-11T18:14:43.729Z,18.30
2022-10-11T18:17:10.175Z,18.30
2022-10-11T18:19:36.632Z,18.20
2022-10-11T18:22:06.757Z,18.20
2022-10-11T18:24:33.634Z,18.10
2022-10-11T18:27:00.130Z,18.10
2022-10-11T18:29:26.730Z,18.00
2022-10-11T18:31:53.307Z,18.00
2022-10-11T18:34:19.938Z,17.90
2022-10-11T18:36:46.468Z,17.90
2022-10-11T18:39:14.449Z,17.90
2022-10-11T18:41:44.307Z,17.80
2022-10-11T18:44:13.752Z,17.80
2022-10-11T18:46:40.673Z,17.70
2022-10-11T18:49:07.111Z,17.70
2022-10-11T18:51:35.148Z,17.60
2022-10-11T18:54:02.080Z,17.60
2022-10-11T18:56:28.989Z,17.60
2022-10-11T18:58:56.246Z,17.50
2022-10-11T19:01:24.401Z,17.50
2022-10-11T19:03:56.423Z,17.40
2022-10-11T19:06:24.556Z,17.40
2022-10-11T19:08:53.183Z,17.40
2022-10-11T19:11:25.175Z,17.20
2022-10-11T19:14:02.035Z,17.20
2022-10-11T19:16:32.312Z,17.10
2022-10-11T19:18:58.828Z,17.10
2022-10-11T19:21:25.365Z,17.00
2022-10-11T19:23:52.234Z,17.00
2022-10-11T19:26:30.087Z,17.00
2022-10-11T19:28:58.197Z,16.90
2022-10-11T19:31:24.817Z,16.90
2022-10-11T19:33:51.696Z,16.80
2022-10-11T19:36:20.031Z,16.80
2022-10-11T19:38:48.237Z,16.80
2022-10-11T19:41:15.859Z,16.70
2022-10-11T19:43:42.868Z,16.70
2022-10-11T19:46:10.788Z,16.60
2022-10-11T19:48:42.731Z,16.60
2022-10-11T19:51:13.677Z,16.60
2022-10-11T19:53:40.375Z,16.50
2022-10-11T19:56:08.448Z,16.50
2022-10-11T19:58:35.295Z,16.40
2022-10-11T20:01:06.298Z,16.40
2022-10-11T20:03:33.317Z,16.40
2022-10-11T20:06:00.496Z,16.30
2022-10-11T20:08:28.469Z,16.30
2022-10-11T20:10:54.965Z,16.20
2022-10-11T20:13:21.461Z,16.20
2022-10-11T20:15:47.887Z,16.20
2022-10-11T20:18:14.313Z,16.10
2022-10-11T20:20:50.482Z,16.10
2022-10-11T20:23:18.238Z,16.10
2022-10-11T20:25:45.125Z,16.00
2022-10-11T20:28:11.632Z,16.00
2022-10-11T20:30:42.289Z,16.00
2022-10-11T20:33:08.828Z,15.90
2022-10-11T20:35:35.936Z,15.90
2022-10-11T20:38:02.571Z,15.80
2022-10-11T20:40:28.994Z,15.80
2022-10-11T20:42:55.431Z,15.80
2022-10-11T20:45:21.842Z,15.80
2022-10-11T20:47:48.360Z,15.70
2022-10-11T20:50:16.649Z,15.70
2022-10-11T20:52:44.891Z,15.60
2022-10-11T20:55:11.333Z,15.60
2022-10-11T20:57:37.763Z,15.60
2022-10-11T21:00:04.797Z,15.60
2022-10-11T21:02:31.409Z,15.50
2022-10-11T21:04:58.855Z,15.50
2022-10-11T21:07:25.316Z,15.50
2022-10-11T21:09:51.757Z,15.40
2022-10-11T21:12:18.205Z,15.40
2022-10-11T21:14:44.615Z,15.40
2022-10-11T21:17:11.145Z,15.30
2022-10-11T21:19:37.568Z,15.30
2022-10-11T21:22:04.040Z,15.30
2022-10-11T21:24:30.612Z,15.30
2022-10-11T21:27:00.431Z,15.30
2022-10-11T21:29:27.340Z,15.20
2022-10-11T21:31:53.768Z,15.20
2022-10-11T21:34:20.182Z,15.10
2022-10-11T21:36:46.698Z,15.10
2022-10-11T21:39:13.165Z,15.10
2022-10-11T21:41:42.100Z,15.00
2022-10-11T21:44:08.623Z,15.00
2022-10-11T21:49:22.387Z,15.00
2022-10-11T21:51:49.071Z,14.90
2022-10-11T21:54:15.900Z,14.90
2022-10-11T21:56:42.594Z,14.90
2022-10-11T21:59:12.033Z,14.80
2022-10-11T22:01:39.951Z,14.80
2022-10-11T22:04:09.439Z,14.70
2022-10-11T22:06:36.455Z,14.70
2022-10-11T22:09:03.910Z,14.70
2022-10-11T22:11:30.396Z,14.70
2022-10-11T22:13:57.058Z,14.60
2022-10-11T22:16:23.544Z,14.60
2022-10-11T22:18:49.985Z,14.60
2022-10-11T22:21:17.684Z,14.50
2022-10-11T22:23:44.896Z,14.50
2022-10-11T22:26:13.134Z,14.50
2022-10-11T22:28:39.596Z,14.50
2022-10-11T22:31:06.292Z,14.40
2022-10-11T22:33:32.860Z,14.40
2022-10-11T22:36:00.584Z,14.40
2022-10-11T22:38:27.367Z,14.30
2022-10-11T22:40:54.000Z,14.30
2022-10-11T22:43:20.694Z,14.30
2022-10-11T22:45:47.103Z,14.20
2022-10-11T22:48:13.534Z,14.20
2022-10-11T22:50:39.999Z,14.20
2022-10-11T22:53:06.763Z,14.10
2022-10-11T22:55:33.357Z,14.10
2022-10-11T22:57:59.902Z,14.10
2022-10-11T23:00:26.426Z,14.00
2022-10-11T23:02:52.882Z,14.00
2022-10-11T23:05:19.487Z,14.00
2022-10-11T23:07:46.381Z,13.90
2022-10-11T23:10:13.023Z,13.90
2022-10-11T23:12:39.436Z,13.90
2022-10-11T23:15:06.086Z,13.80
2022-10-11T23:17:32.559Z,13.80
2022-10-11T23:19:58.996Z,13.80
2022-10-11T23:22:25.415Z,13.80
2022-10-11T23:24:51.958Z,13.70
2022-10-11T23:27:18.383Z,13.70
2022-10-11T23:29:44.844Z,13.70
2022-10-11T23:32:11.697Z,13.70
2022-10-11T23:34:38.285Z,13.60
2022-10-11T23:37:05.858Z,13.60
2022-10-11T23:39:32.336Z,13.60
2022-10-11T23:41:58.779Z,13.60
2022-10-11T23:44:25.208Z,13.50
2022-10-11T23:46:52.158Z,13.50
2022-10-11T23:49:18.609Z,13.50
2022-10-11T23:51:45.021Z,13.40
2022-10-11T23:54:11.819Z,13.40
2022-10-11T23:56:38.328Z,13.40
2022-10-11T23:59:04.777Z,13.40
